sensor_id;sensor_type;location;lat;lon;timestamp;temperature;humidity
18884;DHT22;9574;47.282;9.640;2023-04-03T00:01:27;8.40;99.90
18884;DHT22;9574;47.282;9.640;2023-04-03T00:03:54;8.30;99.90
18884;DHT22;9574;47.282;9.640;2023-04-03T00:06:22;8.30;99.90
18884;DHT22;9574;47.282;9.640;2023-04-03T00:08:52;8.30;99.90
18884;DHT22;9574;47.282;9.640;2023-04-03T00:11:29;8.30;99.90
18884;DHT22;9574;47.282;9.640;2023-04-03T00:13:56;8.40;99.90
18884;DHT22;9574;47.282;9.640;2023-04-03T00:16:24;8.40;99.90
18884;DHT22;9574;47.282;9.640;2023-04-03T00:18:51;8.40;99.90
18884;DHT22;9574;47.282;9.640;2023-04-03T00:21:19;8.30;99.90
18884;DHT22;9574;47.282;9.640;2023-04-03T00:23:47;8.30;99.90
18884;DHT22;9574;47.282;9.640;2023-04-03T00:26:16;8.10;99.90
18884;DHT22;9574;47.282;9.640;2023-04-03T00:28:52;8.20;99.90
18884;DHT22;9574;47.282;9.640;2023-04-03T00:31:19;8.10;99.90
18884;DHT22;9574;47.282;9.640;2023-04-03T00:33:47;8.00;99.90
18884;DHT22;9574;47.282;9.640;2023-04-03T00:36:14;7.90;99.90
18884;DHT22;9574;47.282;9.640;2023-04-03T00:38:44;7.90;99.90
18884;DHT22;9574;47.282;9.640;2023-04-03T00:41:11;7.90;99.90
18884;DHT22;9574;47.282;9.640;2023-04-03T00:43:39;7.90;99.90
18884;DHT22;9574;47.282;9.640;2023-04-03T00:46:12;7.90;99.90
18884;DHT22;9574;47.282;9.640;2023-04-03T00:48:41;7.90;99.90
18884;DHT22;9574;47.282;9.640;2023-04-03T00:51:13;7.90;99.90
18884;DHT22;9574;47.282;9.640;2023-04-03T00:53:44;7.90;99.90
18884;DHT22;9574;47.282;9.640;2023-04-03T00:56:15;7.90;99.90
18884;DHT22;9574;47.282;9.640;2023-04-03T00:58:50;7.90;99.90
18884;DHT22;9574;47.282;9.640;2023-04-03T01:01:24;7.90;99.90
18884;DHT22;9574;47.282;9.640;2023-04-03T01:03:53;7.80;99.90
18884;DHT22;9574;47.282;9.640;2023-04-03T01:06:24;7.80;99.90
18884;DHT22;9574;47.282;9.640;2023-04-03T01:08:53;7.70;99.90
18884;DHT22;9574;47.282;9.640;2023-04-03T01:11:23;7.60;99.90
18884;DHT22;9574;47.282;9.640;2023-04-03T01:13:53;7.60;99.90
18884;DHT22;9574;47.282;9.640;2023-04-03T01:16:22;7.50;99.90
18884;DHT22;9574;47.282;9.640;2023-04-03T01:18:49;7.50;99.90
18884;DHT22;9574;47.282;9.640;2023-04-03T01:21:48;7.40;99.90
18884;DHT22;9574;47.282;9.640;2023-04-03T01:24:27;7.40;99.90
18884;DHT22;9574;47.282;9.640;2023-04-03T01:27:02;7.20;99.90
18884;DHT22;9574;47.282;9.640;2023-04-03T01:29:30;7.20;99.90
18884;DHT22;9574;47.282;9.640;2023-04-03T01:32:02;7.10;99.90
18884;DHT22;9574;47.282;9.640;2023-04-03T01:34:31;7.10;99.90
18884;DHT22;9574;47.282;9.640;2023-04-03T01:36:58;7.10;99.90
18884;DHT22;9574;47.282;9.640;2023-04-03T01:39:28;7.00;99.90
18884;DHT22;9574;47.282;9.640;2023-04-03T01:42:04;7.00;99.90
18884;DHT22;9574;47.282;9.640;2023-04-03T01:44:31;6.90;99.90
18884;DHT22;9574;47.282;9.640;2023-04-03T01:46:59;6.70;99.90
18884;DHT22;9574;47.282;9.640;2023-04-03T01:49:28;6.40;99.90
18884;DHT22;9574;47.282;9.640;2023-04-03T01:51:55;6.40;99.90
18884;DHT22;9574;47.282;9.640;2023-04-03T01:54:23;6.30;99.90
18884;DHT22;9574;47.282;9.640;2023-04-03T01:56:50;6.40;99.90
18884;DHT22;9574;47.282;9.640;2023-04-03T01:59:18;6.30;99.90
18884;DHT22;9574;47.282;9.640;2023-04-03T02:01:45;6.50;99.90
18884;DHT22;9574;47.282;9.640;2023-04-03T02:04:12;6.50;99.90
18884;DHT22;9574;47.282;9.640;2023-04-03T02:06:44;6.60;99.90
18884;DHT22;9574;47.282;9.640;2023-04-03T02:09:12;6.50;99.90
18884;DHT22;9574;47.282;9.640;2023-04-03T02:11:40;6.60;99.90
18884;DHT22;9574;47.282;9.640;2023-04-03T02:14:10;6.60;99.90
18884;DHT22;9574;47.282;9.640;2023-04-03T02:16:42;6.80;99.90
18884;DHT22;9574;47.282;9.640;2023-04-03T02:19:09;6.90;99.90
18884;DHT22;9574;47.282;9.640;2023-04-03T02:21:36;7.00;99.90
18884;DHT22;9574;47.282;9.640;2023-04-03T02:24:06;7.00;99.90
18884;DHT22;9574;47.282;9.640;2023-04-03T02:26:47;6.90;99.90
18884;DHT22;9574;47.282;9.640;2023-04-03T02:29:15;6.80;99.90
18884;DHT22;9574;47.282;9.640;2023-04-03T02:31:43;6.80;99.90
18884;DHT22;9574;47.282;9.640;2023-04-03T02:34:12;6.70;99.90
18884;DHT22;9574;47.282;9.640;2023-04-03T02:36:39;6.60;99.90
18884;DHT22;9574;47.282;9.640;2023-04-03T02:39:08;6.60;99.90
18884;DHT22;9574;47.282;9.640;2023-04-03T02:41:36;6.50;99.90
18884;DHT22;9574;47.282;9.640;2023-04-03T02:44:05;6.50;99.90
18884;DHT22;9574;47.282;9.640;2023-04-03T02:46:33;6.40;99.90
18884;DHT22;9574;47.282;9.640;2023-04-03T02:49:01;6.30;99.90
18884;DHT22;9574;47.282;9.640;2023-04-03T02:51:29;6.20;99.90
18884;DHT22;9574;47.282;9.640;2023-04-03T02:53:57;6.10;99.90
18884;DHT22;9574;47.282;9.640;2023-04-03T02:56:27;5.90;99.90
18884;DHT22;9574;47.282;9.640;2023-04-03T02:58:56;5.80;99.90
18884;DHT22;9574;47.282;9.640;2023-04-03T03:01:23;5.70;99.90
18884;DHT22;9574;47.282;9.640;2023-04-03T03:03:51;5.70;99.90
18884;DHT22;9574;47.282;9.640;2023-04-03T03:06:26;5.60;99.90
18884;DHT22;9574;47.282;9.640;2023-04-03T03:08:55;5.70;99.90
18884;DHT22;9574;47.282;9.640;2023-04-03T03:11:27;5.70;99.90
18884;DHT22;9574;47.282;9.640;2023-04-03T03:13:54;5.70;99.90
18884;DHT22;9574;47.282;9.640;2023-04-03T03:16:21;5.70;99.90
18884;DHT22;9574;47.282;9.640;2023-04-03T03:18:49;5.70;99.90
18884;DHT22;9574;47.282;9.640;2023-04-03T03:21:19;5.70;99.90
18884;DHT22;9574;47.282;9.640;2023-04-03T03:23:46;5.60;99.90
18884;DHT22;9574;47.282;9.640;2023-04-03T03:26:14;5.60;99.90
18884;DHT22;9574;47.282;9.640;2023-04-03T03:28:50;5.70;99.90
18884;DHT22;9574;47.282;9.640;2023-04-03T03:31:18;5.70;99.90
18884;DHT22;9574;47.282;9.640;2023-04-03T03:33:47;5.70;99.90
18884;DHT22;9574;47.282;9.640;2023-04-03T03:36:16;5.80;99.90
18884;DHT22;9574;47.282;9.640;2023-04-03T03:38:47;5.80;99.90
18884;DHT22;9574;47.282;9.640;2023-04-03T03:41:15;5.80;99.90
18884;DHT22;9574;47.282;9.640;2023-04-03T03:43:44;5.70;99.90
18884;DHT22;9574;47.282;9.640;2023-04-03T03:46:16;5.60;99.90
18884;DHT22;9574;47.282;9.640;2023-04-03T03:48:43;5.50;99.90
18884;DHT22;9574;47.282;9.640;2023-04-03T03:51:10;5.40;99.90
18884;DHT22;9574;47.282;9.640;2023-04-03T03:53:39;5.40;99.90
18884;DHT22;9574;47.282;9.640;2023-04-03T03:56:12;5.30;99.90
18884;DHT22;9574;47.282;9.640;2023-04-03T03:58:40;5.20;99.90
18884;DHT22;9574;47.282;9.640;2023-04-03T04:01:09;5.20;99.90
18884;DHT22;9574;47.282;9.640;2023-04-03T04:03:38;5.20;99.90
18884;DHT22;9574;47.282;9.640;2023-04-03T04:06:06;5.20;99.90
18884;DHT22;9574;47.282;9.640;2023-04-03T04:08:34;5.30;99.90
18884;DHT22;9574;47.282;9.640;2023-04-03T04:11:02;5.30;99.90
18884;DHT22;9574;47.282;9.640;2023-04-03T04:13:31;5.20;99.90
18884;DHT22;9574;47.282;9.640;2023-04-03T04:15:59;5.20;99.90
18884;DHT22;9574;47.282;9.640;2023-04-03T04:18:31;5.10;99.90
18884;DHT22;9574;47.282;9.640;2023-04-03T04:20:59;5.10;99.90
18884;DHT22;9574;47.282;9.640;2023-04-03T04:23:27;5.20;99.90
18884;DHT22;9574;47.282;9.640;2023-04-03T04:25:54;5.10;99.90
18884;DHT22;9574;47.282;9.640;2023-04-03T04:28:21;5.10;99.90
18884;DHT22;9574;47.282;9.640;2023-04-03T04:30:51;5.10;99.90
18884;DHT22;9574;47.282;9.640;2023-04-03T04:33:17;5.00;99.90
18884;DHT22;9574;47.282;9.640;2023-04-03T04:35:47;5.10;99.90
18884;DHT22;9574;47.282;9.640;2023-04-03T04:38:14;5.20;99.90
18884;DHT22;9574;47.282;9.640;2023-04-03T04:40:42;5.20;99.90
18884;DHT22;9574;47.282;9.640;2023-04-03T04:43:11;5.10;99.90
18884;DHT22;9574;47.282;9.640;2023-04-03T04:45:41;5.00;99.90
18884;DHT22;9574;47.282;9.640;2023-04-03T04:48:08;5.10;99.90
18884;DHT22;9574;47.282;9.640;2023-04-03T04:50:35;5.20;99.90
18884;DHT22;9574;47.282;9.640;2023-04-03T04:53:04;5.20;99.90
18884;DHT22;9574;47.282;9.640;2023-04-03T04:55:31;5.20;99.90
18884;DHT22;9574;47.282;9.640;2023-04-03T04:58:00;5.10;99.90
18884;DHT22;9574;47.282;9.640;2023-04-03T05:00:29;4.90;99.90
18884;DHT22;9574;47.282;9.640;2023-04-03T05:03:00;4.90;99.90
18884;DHT22;9574;47.282;9.640;2023-04-03T05:05:27;4.80;99.90
18884;DHT22;9574;47.282;9.640;2023-04-03T05:07:56;4.90;99.90
18884;DHT22;9574;47.282;9.640;2023-04-03T05:10:25;4.90;99.90
18884;DHT22;9574;47.282;9.640;2023-04-03T05:12:52;5.00;99.90
18884;DHT22;9574;47.282;9.640;2023-04-03T05:15:20;4.90;99.90
18884;DHT22;9574;47.282;9.640;2023-04-03T05:17:49;4.90;99.90
18884;DHT22;9574;47.282;9.640;2023-04-03T05:20:19;5.00;99.90
18884;DHT22;9574;47.282;9.640;2023-04-03T05:22:46;4.90;99.90
18884;DHT22;9574;47.282;9.640;2023-04-03T05:25:15;4.80;99.90
18884;DHT22;9574;47.282;9.640;2023-04-03T05:27:47;4.70;99.90
18884;DHT22;9574;47.282;9.640;2023-04-03T05:30:15;4.80;99.90
18884;DHT22;9574;47.282;9.640;2023-04-03T05:32:45;4.80;99.90
18884;DHT22;9574;47.282;9.640;2023-04-03T05:35:12;4.80;99.90
18884;DHT22;9574;47.282;9.640;2023-04-03T05:37:40;4.80;99.90
18884;DHT22;9574;47.282;9.640;2023-04-03T05:40:09;4.80;99.90
18884;DHT22;9574;47.282;9.640;2023-04-03T05:42:38;4.80;99.90
18884;DHT22;9574;47.282;9.640;2023-04-03T05:45:10;4.80;99.90
18884;DHT22;9574;47.282;9.640;2023-04-03T05:47:38;4.80;99.90
18884;DHT22;9574;47.282;9.640;2023-04-03T05:50:07;4.70;99.90
18884;DHT22;9574;47.282;9.640;2023-04-03T05:52:37;4.60;99.90
18884;DHT22;9574;47.282;9.640;2023-04-03T05:55:06;4.50;99.90
18884;DHT22;9574;47.282;9.640;2023-04-03T05:57:37;4.60;99.90
18884;DHT22;9574;47.282;9.640;2023-04-03T06:00:07;4.60;99.90
18884;DHT22;9574;47.282;9.640;2023-04-03T06:02:35;4.50;99.90
18884;DHT22;9574;47.282;9.640;2023-04-03T06:05:06;4.60;99.90
18884;DHT22;9574;47.282;9.640;2023-04-03T06:07:35;4.50;99.90
18884;DHT22;9574;47.282;9.640;2023-04-03T06:10:07;4.60;99.90
18884;DHT22;9574;47.282;9.640;2023-04-03T06:12:40;4.60;99.90
18884;DHT22;9574;47.282;9.640;2023-04-03T06:15:11;4.70;99.90
18884;DHT22;9574;47.282;9.640;2023-04-03T06:17:39;4.80;99.90
18884;DHT22;9574;47.282;9.640;2023-04-03T06:20:10;4.80;99.90
18884;DHT22;9574;47.282;9.640;2023-04-03T06:22:38;4.80;99.90
18884;DHT22;9574;47.282;9.640;2023-04-03T06:25:10;4.90;99.90
18884;DHT22;9574;47.282;9.640;2023-04-03T06:27:43;4.90;99.90
18884;DHT22;9574;47.282;9.640;2023-04-03T06:30:14;5.00;99.90
18884;DHT22;9574;47.282;9.640;2023-04-03T06:32:42;5.10;99.90
18884;DHT22;9574;47.282;9.640;2023-04-03T06:35:11;5.10;99.90
18884;DHT22;9574;47.282;9.640;2023-04-03T06:37:40;5.10;99.90
18884;DHT22;9574;47.282;9.640;2023-04-03T06:40:11;5.10;99.90
18884;DHT22;9574;47.282;9.640;2023-04-03T06:42:42;5.20;99.90
18884;DHT22;9574;47.282;9.640;2023-04-03T06:45:13;5.10;99.90
18884;DHT22;9574;47.282;9.640;2023-04-03T06:47:40;5.10;99.90
18884;DHT22;9574;47.282;9.640;2023-04-03T06:50:12;5.10;99.90
18884;DHT22;9574;47.282;9.640;2023-04-03T06:52:43;5.00;99.90
18884;DHT22;9574;47.282;9.640;2023-04-03T06:55:14;5.00;99.90
18884;DHT22;9574;47.282;9.640;2023-04-03T06:57:42;5.00;99.90
18884;DHT22;9574;47.282;9.640;2023-04-03T07:00:13;5.10;99.90
18884;DHT22;9574;47.282;9.640;2023-04-03T07:02:42;5.10;99.90
18884;DHT22;9574;47.282;9.640;2023-04-03T07:05:09;5.10;99.90
18884;DHT22;9574;47.282;9.640;2023-04-03T07:07:37;5.10;99.90
18884;DHT22;9574;47.282;9.640;2023-04-03T07:10:06;5.10;99.90
18884;DHT22;9574;47.282;9.640;2023-04-03T07:12:34;5.20;99.90
18884;DHT22;9574;47.282;9.640;2023-04-03T07:15:01;5.30;99.90
18884;DHT22;9574;47.282;9.640;2023-04-03T07:17:32;5.40;99.90
18884;DHT22;9574;47.282;9.640;2023-04-03T07:20:02;5.50;99.90
18884;DHT22;9574;47.282;9.640;2023-04-03T07:22:32;5.50;99.90
18884;DHT22;9574;47.282;9.640;2023-04-03T07:24:59;5.40;99.90
18884;DHT22;9574;47.282;9.640;2023-04-03T07:27:27;5.40;99.90
18884;DHT22;9574;47.282;9.640;2023-04-03T07:29:58;5.30;99.90
18884;DHT22;9574;47.282;9.640;2023-04-03T07:32:26;5.40;99.90
18884;DHT22;9574;47.282;9.640;2023-04-03T07:34:57;5.50;99.90
18884;DHT22;9574;47.282;9.640;2023-04-03T07:37:26;5.50;99.90
18884;DHT22;9574;47.282;9.640;2023-04-03T07:39:53;5.60;99.90
18884;DHT22;9574;47.282;9.640;2023-04-03T07:42:24;5.60;99.90
18884;DHT22;9574;47.282;9.640;2023-04-03T07:44:53;5.70;99.90
18884;DHT22;9574;47.282;9.640;2023-04-03T07:47:20;5.80;99.90
18884;DHT22;9574;47.282;9.640;2023-04-03T07:49:49;5.80;99.90
18884;DHT22;9574;47.282;9.640;2023-04-03T07:52:19;5.70;99.90
18884;DHT22;9574;47.282;9.640;2023-04-03T07:54:46;5.60;99.90
18884;DHT22;9574;47.282;9.640;2023-04-03T07:57:16;5.60;99.90
18884;DHT22;9574;47.282;9.640;2023-04-03T07:59:47;5.50;99.90
18884;DHT22;9574;47.282;9.640;2023-04-03T08:02:16;5.60;99.90
18884;DHT22;9574;47.282;9.640;2023-04-03T08:04:45;5.60;99.90
18884;DHT22;9574;47.282;9.640;2023-04-03T08:07:14;5.80;99.90
18884;DHT22;9574;47.282;9.640;2023-04-03T08:09:43;5.90;99.90
18884;DHT22;9574;47.282;9.640;2023-04-03T08:12:10;6.00;99.90
18884;DHT22;9574;47.282;9.640;2023-04-03T08:14:39;6.10;99.90
18884;DHT22;9574;47.282;9.640;2023-04-03T08:17:08;6.10;99.90
18884;DHT22;9574;47.282;9.640;2023-04-03T08:19:37;6.10;99.90
18884;DHT22;9574;47.282;9.640;2023-04-03T08:22:07;6.00;99.90
18884;DHT22;9574;47.282;9.640;2023-04-03T08:24:36;6.00;99.90
18884;DHT22;9574;47.282;9.640;2023-04-03T08:27:07;5.90;99.90
18884;DHT22;9574;47.282;9.640;2023-04-03T08:29:34;5.90;99.90
18884;DHT22;9574;47.282;9.640;2023-04-03T08:32:03;5.70;99.90
18884;DHT22;9574;47.282;9.640;2023-04-03T08:34:31;5.60;99.90
18884;DHT22;9574;47.282;9.640;2023-04-03T08:37:00;5.60;99.90
18884;DHT22;9574;47.282;9.640;2023-04-03T08:39:27;5.50;99.90
18884;DHT22;9574;47.282;9.640;2023-04-03T08:41:58;5.60;99.90
18884;DHT22;9574;47.282;9.640;2023-04-03T08:44:38;5.60;99.90
18884;DHT22;9574;47.282;9.640;2023-04-03T08:47:18;5.60;99.90
18884;DHT22;9574;47.282;9.640;2023-04-03T08:49:54;5.60;99.90
18884;DHT22;9574;47.282;9.640;2023-04-03T08:52:32;5.70;99.90
18884;DHT22;9574;47.282;9.640;2023-04-03T08:55:06;5.80;99.90
18884;DHT22;9574;47.282;9.640;2023-04-03T08:57:39;5.90;99.90
18884;DHT22;9574;47.282;9.640;2023-04-03T09:00:17;5.90;99.90
18884;DHT22;9574;47.282;9.640;2023-04-03T09:02:49;5.90;99.90
18884;DHT22;9574;47.282;9.640;2023-04-03T09:05:19;5.80;99.90
18884;DHT22;9574;47.282;9.640;2023-04-03T09:07:58;5.80;99.90
18884;DHT22;9574;47.282;9.640;2023-04-03T09:10:30;5.80;99.90
18884;DHT22;9574;47.282;9.640;2023-04-03T09:13:03;5.70;99.90
18884;DHT22;9574;47.282;9.640;2023-04-03T09:15:34;5.80;99.90
18884;DHT22;9574;47.282;9.640;2023-04-03T09:18:06;5.80;99.90
18884;DHT22;9574;47.282;9.640;2023-04-03T09:20:44;5.80;99.90
18884;DHT22;9574;47.282;9.640;2023-04-03T09:23:18;5.80;99.90
18884;DHT22;9574;47.282;9.640;2023-04-03T09:25:51;5.80;99.90
18884;DHT22;9574;47.282;9.640;2023-04-03T09:28:20;5.70;99.90
18884;DHT22;9574;47.282;9.640;2023-04-03T09:30:53;5.70;99.90
18884;DHT22;9574;47.282;9.640;2023-04-03T09:33:21;5.70;99.90
18884;DHT22;9574;47.282;9.640;2023-04-03T09:35:50;5.70;99.90
18884;DHT22;9574;47.282;9.640;2023-04-03T09:38:20;5.70;99.90
18884;DHT22;9574;47.282;9.640;2023-04-03T09:40:50;5.70;99.90
18884;DHT22;9574;47.282;9.640;2023-04-03T09:43:28;5.70;99.90
18884;DHT22;9574;47.282;9.640;2023-04-03T09:46:18;5.80;99.90
18884;DHT22;9574;47.282;9.640;2023-04-03T09:48:55;5.80;99.90
18884;DHT22;9574;47.282;9.640;2023-04-03T09:51:25;5.90;99.90
18884;DHT22;9574;47.282;9.640;2023-04-03T09:53:55;5.90;99.90
18884;DHT22;9574;47.282;9.640;2023-04-03T09:56:25;6.00;99.90
18884;DHT22;9574;47.282;9.640;2023-04-03T09:59:07;5.80;99.90
18884;DHT22;9574;47.282;9.640;2023-04-03T10:01:37;5.90;99.90
18884;DHT22;9574;47.282;9.640;2023-04-03T10:04:11;5.90;99.90
18884;DHT22;9574;47.282;9.640;2023-04-03T10:06:41;5.90;99.90
18884;DHT22;9574;47.282;9.640;2023-04-03T10:09:18;5.90;99.90
18884;DHT22;9574;47.282;9.640;2023-04-03T10:12:00;5.80;99.90
18884;DHT22;9574;47.282;9.640;2023-04-03T10:14:30;5.90;99.90
18884;DHT22;9574;47.282;9.640;2023-04-03T10:17:09;5.90;99.90
18884;DHT22;9574;47.282;9.640;2023-04-03T10:19:45;5.90;99.90
18884;DHT22;9574;47.282;9.640;2023-04-03T10:22:21;6.00;99.90
18884;DHT22;9574;47.282;9.640;2023-04-03T10:25:03;6.00;99.90
18884;DHT22;9574;47.282;9.640;2023-04-03T10:27:42;6.10;99.90
18884;DHT22;9574;47.282;9.640;2023-04-03T10:30:22;6.20;99.90
18884;DHT22;9574;47.282;9.640;2023-04-03T10:32:59;6.20;99.90
18884;DHT22;9574;47.282;9.640;2023-04-03T10:35:39;6.20;99.90
18884;DHT22;9574;47.282;9.640;2023-04-03T10:38:17;6.20;99.90
18884;DHT22;9574;47.282;9.640;2023-04-03T10:40:52;6.20;99.90
18884;DHT22;9574;47.282;9.640;2023-04-03T10:43:29;6.20;99.90
18884;DHT22;9574;47.282;9.640;2023-04-03T10:46:02;6.40;99.90
18884;DHT22;9574;47.282;9.640;2023-04-03T10:48:55;6.30;99.90
18884;DHT22;9574;47.282;9.640;2023-04-03T10:51:31;6.30;99.90
18884;DHT22;9574;47.282;9.640;2023-04-03T10:54:07;6.30;99.90
18884;DHT22;9574;47.282;9.640;2023-04-03T10:56:41;6.40;99.90
18884;DHT22;9574;47.282;9.640;2023-04-03T10:59:21;6.50;99.90
18884;DHT22;9574;47.282;9.640;2023-04-03T11:01:53;6.60;99.90
18884;DHT22;9574;47.282;9.640;2023-04-03T11:04:29;6.60;99.90
18884;DHT22;9574;47.282;9.640;2023-04-03T11:07:00;6.70;99.90
18884;DHT22;9574;47.282;9.640;2023-04-03T11:09:30;6.70;99.90
18884;DHT22;9574;47.282;9.640;2023-04-03T11:12:04;6.80;99.90
18884;DHT22;9574;47.282;9.640;2023-04-03T11:14:36;6.70;99.90
18884;DHT22;9574;47.282;9.640;2023-04-03T11:17:15;6.80;99.90
18884;DHT22;9574;47.282;9.640;2023-04-03T11:20:03;6.80;99.90
18884;DHT22;9574;47.282;9.640;2023-04-03T11:22:36;6.80;99.90
18884;DHT22;9574;47.282;9.640;2023-04-03T11:25:15;6.80;99.90
18884;DHT22;9574;47.282;9.640;2023-04-03T11:27:51;6.90;99.90
18884;DHT22;9574;47.282;9.640;2023-04-03T11:30:21;7.00;99.90
18884;DHT22;9574;47.282;9.640;2023-04-03T11:33:20;7.00;99.90
18884;DHT22;9574;47.282;9.640;2023-04-03T11:35:52;7.10;99.90
18884;DHT22;9574;47.282;9.640;2023-04-03T11:38:25;7.10;99.90
18884;DHT22;9574;47.282;9.640;2023-04-03T11:40:55;7.00;99.90
18884;DHT22;9574;47.282;9.640;2023-04-03T11:43:26;7.00;99.90
18884;DHT22;9574;47.282;9.640;2023-04-03T11:45:58;7.00;99.90
18884;DHT22;9574;47.282;9.640;2023-04-03T11:48:50;7.00;99.90
18884;DHT22;9574;47.282;9.640;2023-04-03T11:51:55;7.00;99.90
18884;DHT22;9574;47.282;9.640;2023-04-03T11:54:46;7.10;99.90
18884;DHT22;9574;47.282;9.640;2023-04-03T11:57:43;7.20;99.90
18884;DHT22;9574;47.282;9.640;2023-04-03T12:04:06;7.30;99.90
18884;DHT22;9574;47.282;9.640;2023-04-03T12:07:00;7.40;99.90
18884;DHT22;9574;47.282;9.640;2023-04-03T12:10:16;7.40;99.90
18884;DHT22;9574;47.282;9.640;2023-04-03T12:12:56;7.50;99.90
18884;DHT22;9574;47.282;9.640;2023-04-03T12:15:54;7.50;99.90
18884;DHT22;9574;47.282;9.640;2023-04-03T12:18:43;7.60;99.90
18884;DHT22;9574;47.282;9.640;2023-04-03T12:21:14;7.60;99.90
18884;DHT22;9574;47.282;9.640;2023-04-03T12:24:23;7.60;99.90
18884;DHT22;9574;47.282;9.640;2023-04-03T12:27:03;7.70;99.90
18884;DHT22;9574;47.282;9.640;2023-04-03T12:29:42;7.70;99.90
18884;DHT22;9574;47.282;9.640;2023-04-03T12:32:24;7.70;99.90
18884;DHT22;9574;47.282;9.640;2023-04-03T12:35:15;7.80;99.90
18884;DHT22;9574;47.282;9.640;2023-04-03T12:41:10;8.10;99.90
18884;DHT22;9574;47.282;9.640;2023-04-03T12:43:53;8.10;99.90
18884;DHT22;9574;47.282;9.640;2023-04-03T12:46:24;8.00;99.90
18884;DHT22;9574;47.282;9.640;2023-04-03T12:48:55;8.10;99.90
18884;DHT22;9574;47.282;9.640;2023-04-03T12:51:28;8.10;99.90
18884;DHT22;9574;47.282;9.640;2023-04-03T12:54:12;8.10;99.90
18884;DHT22;9574;47.282;9.640;2023-04-03T12:56:42;8.10;99.90
18884;DHT22;9574;47.282;9.640;2023-04-03T12:59:15;8.00;99.90
18884;DHT22;9574;47.282;9.640;2023-04-03T13:01:52;8.00;99.90
18884;DHT22;9574;47.282;9.640;2023-04-03T13:04:22;8.20;99.90
18884;DHT22;9574;47.282;9.640;2023-04-03T13:06:50;8.30;99.90
18884;DHT22;9574;47.282;9.640;2023-04-03T13:09:20;8.30;99.90
18884;DHT22;9574;47.282;9.640;2023-04-03T13:11:58;8.30;99.90
18884;DHT22;9574;47.282;9.640;2023-04-03T13:14:27;8.30;99.90
18884;DHT22;9574;47.282;9.640;2023-04-03T13:16:58;8.30;99.90
18884;DHT22;9574;47.282;9.640;2023-04-03T13:19:27;8.30;99.90
18884;DHT22;9574;47.282;9.640;2023-04-03T13:21:59;8.30;99.90
18884;DHT22;9574;47.282;9.640;2023-04-03T13:24:31;8.30;99.90
18884;DHT22;9574;47.282;9.640;2023-04-03T13:27:01;8.30;99.90
18884;DHT22;9574;47.282;9.640;2023-04-03T13:29:30;8.30;99.90
18884;DHT22;9574;47.282;9.640;2023-04-03T13:32:02;8.40;99.90
18884;DHT22;9574;47.282;9.640;2023-04-03T13:34:38;8.40;99.90
18884;DHT22;9574;47.282;9.640;2023-04-03T13:37:11;8.50;99.90
18884;DHT22;9574;47.282;9.640;2023-04-03T13:39:55;8.50;99.90
18884;DHT22;9574;47.282;9.640;2023-04-03T13:42:26;8.50;99.90
18884;DHT22;9574;47.282;9.640;2023-04-03T13:45:18;8.50;99.90
18884;DHT22;9574;47.282;9.640;2023-04-03T13:47:50;8.40;99.90
18884;DHT22;9574;47.282;9.640;2023-04-03T13:50:22;8.40;99.90
18884;DHT22;9574;47.282;9.640;2023-04-03T13:52:54;8.40;99.90
18884;DHT22;9574;47.282;9.640;2023-04-03T13:55:23;8.40;99.90
18884;DHT22;9574;47.282;9.640;2023-04-03T13:57:56;8.40;99.90
18884;DHT22;9574;47.282;9.640;2023-04-03T14:00:48;8.30;99.90
18884;DHT22;9574;47.282;9.640;2023-04-03T14:03:20;8.50;99.90
18884;DHT22;9574;47.282;9.640;2023-04-03T14:05:48;8.50;99.90
18884;DHT22;9574;47.282;9.640;2023-04-03T14:08:18;8.60;99.90
18884;DHT22;9574;47.282;9.640;2023-04-03T14:10:49;8.50;99.90
18884;DHT22;9574;47.282;9.640;2023-04-03T14:13:26;8.60;99.90
18884;DHT22;9574;47.282;9.640;2023-04-03T14:16:01;8.70;99.90
18884;DHT22;9574;47.282;9.640;2023-04-03T14:18:28;8.70;99.90
18884;DHT22;9574;47.282;9.640;2023-04-03T14:20:59;8.60;99.90
18884;DHT22;9574;47.282;9.640;2023-04-03T14:23:28;8.60;99.90
18884;DHT22;9574;47.282;9.640;2023-04-03T14:25:56;8.50;99.90
18884;DHT22;9574;47.282;9.640;2023-04-03T14:28:26;8.50;99.90
18884;DHT22;9574;47.282;9.640;2023-04-03T14:30:53;8.50;99.90
18884;DHT22;9574;47.282;9.640;2023-04-03T14:33:21;8.50;99.90
18884;DHT22;9574;47.282;9.640;2023-04-03T14:35:49;8.50;99.90
18884;DHT22;9574;47.282;9.640;2023-04-03T14:38:24;8.40;99.90
18884;DHT22;9574;47.282;9.640;2023-04-03T14:40:52;8.50;99.90
18884;DHT22;9574;47.282;9.640;2023-04-03T14:43:24;8.50;99.90
18884;DHT22;9574;47.282;9.640;2023-04-03T14:45:53;8.40;99.90
18884;DHT22;9574;47.282;9.640;2023-04-03T14:48:23;8.40;99.90
18884;DHT22;9574;47.282;9.640;2023-04-03T14:50:52;8.40;99.90
18884;DHT22;9574;47.282;9.640;2023-04-03T14:53:20;8.30;99.90
18884;DHT22;9574;47.282;9.640;2023-04-03T14:55:50;8.20;99.90
18884;DHT22;9574;47.282;9.640;2023-04-03T14:58:20;8.20;99.90
18884;DHT22;9574;47.282;9.640;2023-04-03T15:00:57;8.20;99.90
18884;DHT22;9574;47.282;9.640;2023-04-03T15:03:26;8.20;99.90
18884;DHT22;9574;47.282;9.640;2023-04-03T15:05:54;8.10;99.90
18884;DHT22;9574;47.282;9.640;2023-04-03T15:08:26;8.30;99.90
18884;DHT22;9574;47.282;9.640;2023-04-03T15:10:55;8.20;99.90
18884;DHT22;9574;47.282;9.640;2023-04-03T15:13:24;8.00;99.90
18884;DHT22;9574;47.282;9.640;2023-04-03T15:15:53;7.90;99.90
18884;DHT22;9574;47.282;9.640;2023-04-03T15:18:26;8.00;99.90
18884;DHT22;9574;47.282;9.640;2023-04-03T15:20:56;7.90;99.90
18884;DHT22;9574;47.282;9.640;2023-04-03T15:23:24;8.10;99.90
18884;DHT22;9574;47.282;9.640;2023-04-03T15:25:55;8.00;99.90
18884;DHT22;9574;47.282;9.640;2023-04-03T15:28:26;8.00;99.90
18884;DHT22;9574;47.282;9.640;2023-04-03T15:30:56;8.00;99.90
18884;DHT22;9574;47.282;9.640;2023-04-03T15:33:25;8.10;99.90
18884;DHT22;9574;47.282;9.640;2023-04-03T15:35:53;8.10;99.90
18884;DHT22;9574;47.282;9.640;2023-04-03T15:38:23;8.10;99.90
18884;DHT22;9574;47.282;9.640;2023-04-03T15:40:53;8.00;99.90
18884;DHT22;9574;47.282;9.640;2023-04-03T15:43:22;8.00;99.90
18884;DHT22;9574;47.282;9.640;2023-04-03T15:45:49;8.00;99.90
18884;DHT22;9574;47.282;9.640;2023-04-03T15:48:19;8.10;99.90
18884;DHT22;9574;47.282;9.640;2023-04-03T15:50:46;8.00;99.90
18884;DHT22;9574;47.282;9.640;2023-04-03T15:53:14;8.00;99.90
18884;DHT22;9574;47.282;9.640;2023-04-03T15:55:45;7.90;99.90
18884;DHT22;9574;47.282;9.640;2023-04-03T15:58:14;7.80;99.90
18884;DHT22;9574;47.282;9.640;2023-04-03T16:00:42;7.80;99.90
18884;DHT22;9574;47.282;9.640;2023-04-03T16:03:12;7.70;99.90
18884;DHT22;9574;47.282;9.640;2023-04-03T16:08:12;7.70;99.90
18884;DHT22;9574;47.282;9.640;2023-04-03T16:10:39;7.60;99.90
18884;DHT22;9574;47.282;9.640;2023-04-03T16:13:16;7.50;99.90
18884;DHT22;9574;47.282;9.640;2023-04-03T16:15:43;7.50;99.90
18884;DHT22;9574;47.282;9.640;2023-04-03T16:18:10;7.40;99.90
18884;DHT22;9574;47.282;9.640;2023-04-03T16:20:39;7.50;99.90
18884;DHT22;9574;47.282;9.640;2023-04-03T16:23:11;7.40;99.90
18884;DHT22;9574;47.282;9.640;2023-04-03T16:25:41;7.30;99.90
18884;DHT22;9574;47.282;9.640;2023-04-03T16:28:11;7.30;99.90
18884;DHT22;9574;47.282;9.640;2023-04-03T16:30:39;7.20;99.90
18884;DHT22;9574;47.282;9.640;2023-04-03T16:33:06;7.20;99.90
18884;DHT22;9574;47.282;9.640;2023-04-03T16:35:41;7.20;99.90
18884;DHT22;9574;47.282;9.640;2023-04-03T16:38:12;7.10;99.90
18884;DHT22;9574;47.282;9.640;2023-04-03T16:40:43;7.10;99.90